logo
Search for airport 
image banner adimage banner adimage banner ad
image banner ad

YJALI - Jarra Creek (Liddle)

Located in Jarra Creek, Australia

ICAO - , IATA -

Data provided by Airmate  

General information

Coordinates: S17°54'25" E145°50'52"
Elevation is 84 feet MSL.
Magnetic variation is 7° East
View others Airports in Queensland

Operational data

Special qualification required
Current time UTC:
Current local time:
Weather at : - ( 0 km )
METAR: ZMUB 170200Z VRB02MPS CAVOK 24/05 Q1007 NOSIG RMK QFE649.1 28
View NOTAMs / SUP AIP / TFR affecting this airport [VIEW]
Communications frequencies: [VIEW]

Runways:

RWY identifierQFULength (ft)Width (ft)SurfaceLDA (ft)
25253°162419ASPH
0773°162419ASPH

Airport contact information

Address: Jarra Creek Australia

Satellite view of YJALI